Time;durP1;ratioP1;P1;durP2;ratioP2;P2;SDS_P1;SDS_P2;PMS_P1;PMS_P2;Temp;Humidity;BMP_temperature;BMP_pressure;BME280_temperature;BME280_humidity;BME280_pressure;Samples;Min_cycle;Max_cycle;Signal;HPM_P1;HPM_P2
2022/09/09 00:00:17;;;;;;;76.57;38.28;;;;;;;13.28;100.00;100320.63;5009985;28;20025;-81
2022/09/09 00:02:54;;;;;;;78.35;36.75;;;;;;;13.29;100.00;100315.06;5024239;28;20025;-82
2022/09/09 00:05:44;;;;;;;81.32;38.05;;;;;;;13.30;100.00;100315.91;5013136;28;20380;-79
2022/09/09 00:08:19;;;;;;;75.97;36.20;;;;;;;13.32;100.00;100308.47;5027997;28;20053;-82
2022/09/09 00:10:52;;;;;;;80.77;36.93;;;;;;;13.32;100.00;100296.94;5023410;28;20049;-80
2022/09/09 00:13:46;;;;;;;73.15;34.65;;;;;;;13.35;100.00;100307.31;5011018;28;20034;-81
2022/09/09 00:16:30;;;;;;;82.18;36.95;;;;;;;13.41;100.00;100311.88;5026611;28;20096;-83
2022/09/09 00:19:07;;;;;;;90.32;38.80;;;;;;;13.39;100.00;100306.72;4997651;28;20078;-81
2022/09/09 00:21:36;;;;;;;96.78;39.83;;;;;;;13.43;100.00;100313.34;5035286;28;20038;-81
2022/09/09 00:24:13;;;;;;;90.47;38.13;;;;;;;13.36;100.00;100317.81;5029279;28;20438;-81
2022/09/09 00:26:47;;;;;;;85.95;39.78;;;;;;;13.37;100.00;100316.81;5021970;28;20037;-81
2022/09/09 00:29:24;;;;;;;92.75;39.67;;;;;;;13.40;100.00;100310.22;5025970;28;20422;-81
2022/09/09 00:31:54;;;;;;;91.10;39.13;;;;;;;13.38;100.00;100314.94;5020064;28;20904;-80
2022/09/09 00:34:26;;;;;;;89.88;40.95;;;;;;;13.46;100.00;100315.66;5010420;28;20045;-82
2022/09/09 00:36:53;;;;;;;98.60;41.97;;;;;;;13.42;100.00;100317.06;5020484;28;20033;-81
2022/09/09 00:39:32;;;;;;;101.57;41.88;;;;;;;13.44;100.00;100319.56;5011307;28;20097;-80
2022/09/09 00:42:22;;;;;;;98.85;41.85;;;;;;;13.42;100.00;100319.75;5020648;28;20029;-82
2022/09/09 00:44:53;;;;;;;78.43;37.95;;;;;;;13.48;100.00;100321.63;5032090;28;20428;-81
2022/09/09 00:47:43;;;;;;;100.05;41.33;;;;;;;13.45;100.00;100313.16;5027301;28;20494;-82
2022/09/09 00:50:37;;;;;;;100.78;42.33;;;;;;;13.49;100.00;100314.44;5026085;28;20044;-81
2022/09/09 00:53:22;;;;;;;100.20;42.67;;;;;;;13.49;100.00;100326.00;5031333;28;20545;-81
2022/09/09 00:55:52;;;;;;;113.78;44.50;;;;;;;13.48;100.00;100318.97;5034560;28;20033;-81
2022/09/09 00:58:17;;;;;;;107.68;43.15;;;;;;;13.43;100.00;100316.03;5026880;28;20062;-81
2022/09/09 01:00:48;;;;;;;115.87;46.17;;;;;;;13.52;100.00;100327.47;5030078;28;20053;-81
2022/09/09 01:03:36;;;;;;;112.85;44.28;;;;;;;13.52;100.00;100322.91;5028347;28;20485;-82
2022/09/09 01:06:23;;;;;;;108.70;44.42;;;;;;;13.51;100.00;100326.63;5028621;28;20029;-81
2022/09/09 01:08:59;;;;;;;99.35;40.80;;;;;;;13.52;100.00;100317.56;5023478;28;20543;-81
2022/09/09 01:11:38;;;;;;;113.80;44.33;;;;;;;13.54;100.00;100317.38;5024982;28;20030;-81
2022/09/09 01:14:16;;;;;;;107.53;42.72;;;;;;;13.57;100.00;100322.34;5022972;28;20045;-82
2022/09/09 01:16:42;;;;;;;96.82;41.00;;;;;;;13.56;100.00;100322.56;5031324;28;20475;-80
2022/09/09 01:19:18;;;;;;;111.18;45.08;;;;;;;13.57;100.00;100316.16;5010843;28;20120;-81
2022/09/09 01:21:55;;;;;;;93.30;40.80;;;;;;;13.57;100.00;100321.53;5019185;28;20021;-82
2022/09/09 01:24:34;;;;;;;105.55;44.42;;;;;;;13.59;100.00;100324.84;5028356;28;20090;-80
2022/09/09 01:27:14;;;;;;;104.78;40.58;;;;;;;13.61;100.00;100320.13;5026315;28;20091;-80
2022/09/09 01:29:40;;;;;;;92.80;38.80;;;;;;;13.62;100.00;100319.09;5021541;28;20072;-81
2022/09/09 01:32:43;;;;;;;85.90;38.13;;;;;;;13.61;100.00;100317.44;5024910;28;20034;-81
2022/09/09 01:35:32;;;;;;;91.43;39.42;;;;;;;13.60;100.00;100310.41;4999500;28;20044;-81
2022/09/09 01:37:59;;;;;;;85.28;36.50;;;;;;;13.59;100.00;100306.06;5031441;28;20143;-81
2022/09/09 01:40:26;;;;;;;91.18;38.50;;;;;;;13.56;100.00;100309.97;5014805;28;20036;-80
2022/09/09 01:42:54;;;;;;;87.15;38.42;;;;;;;13.51;100.00;100301.69;5026919;28;20071;-79
2022/09/09 01:45:21;;;;;;;91.45;39.58;;;;;;;13.61;100.00;100312.06;5029236;28;20028;-83
2022/09/09 01:47:46;;;;;;;96.13;38.45;;;;;;;13.58;100.00;100305.25;5026557;28;20051;-80
2022/09/09 01:50:20;;;;;;;86.03;39.00;;;;;;;13.61;100.00;100317.44;5012234;28;20013;-79
2022/09/09 01:52:49;;;;;;;78.93;35.70;;;;;;;13.60;100.00;100323.81;5009556;28;20036;-79
2022/09/09 01:55:23;;;;;;;91.70;39.03;;;;;;;13.57;100.00;100318.84;5011243;28;20394;-79
2022/09/09 01:58:03;;;;;;;88.55;38.47;;;;;;;13.50;100.00;100319.59;5028181;28;20045;-79
2022/09/09 02:00:31;;;;;;;78.90;34.72;;;;;;;13.56;100.00;100317.19;5028355;28;20078;-78
2022/09/09 02:03:24;;;;;;;90.80;39.75;;;;;;;13.59;100.00;100322.16;5011676;28;20104;-79
2022/09/09 02:06:25;;;;;;;87.53;36.28;;;;;;;13.59;100.00;100314.13;5032683;28;20474;-81
2022/09/09 02:09:00;;;;;;;92.47;38.50;;;;;;;13.56;100.00;100306.47;5005345;28;20118;-80
2022/09/09 02:11:28;;;;;;;105.30;41.10;;;;;;;13.52;100.00;100298.78;5008605;28;20063;-80
2022/09/09 02:14:23;;;;;;;91.70;38.75;;;;;;;13.57;100.00;100300.88;5029628;28;20036;-80
2022/09/09 02:17:03;;;;;;;88.65;39.83;;;;;;;13.61;100.00;100306.72;5002463;28;20061;-79
2022/09/09 02:19:58;;;;;;;96.93;38.80;;;;;;;13.53;100.00;100294.25;5023078;28;20081;-80
2022/09/09 02:22:39;;;;;;;112.32;42.75;;;;;;;13.60;100.00;100305.03;5010880;28;20034;-82
2022/09/09 02:25:10;;;;;;;103.68;42.15;;;;;;;13.53;100.00;100302.28;5021647;28;20034;-79
2022/09/09 02:27:36;;;;;;;109.82;43.95;;;;;;;13.55;100.00;100302.09;5020953;28;20022;-80
2022/09/09 02:30:04;;;;;;;111.28;43.35;;;;;;;13.56;100.00;100298.41;5022454;28;20099;-81
2022/09/09 02:32:43;;;;;;;118.90;46.65;;;;;;;13.52;100.00;100297.97;5012898;28;20052;-80
2022/09/09 02:35:14;;;;;;;111.75;43.75;;;;;;;13.48;100.00;100297.50;5027517;28;20041;-79
2022/09/09 02:37:45;;;;;;;132.48;44.70;;;;;;;13.57;100.00;100308.13;5016622;28;20033;-79
2022/09/09 02:40:13;;;;;;;140.07;47.03;;;;;;;13.49;100.00;100298.34;5028684;28;20025;-79
2022/09/09 02:42:45;;;;;;;139.40;45.53;;;;;;;13.52;100.00;100303.31;5009252;28;20021;-77
2022/09/09 02:45:15;;;;;;;135.70;45.00;;;;;;;13.50;100.00;100308.88;5022594;28;20081;-79
2022/09/09 02:48:07;;;;;;;136.35;46.72;;;;;;;13.53;100.00;100310.34;5016722;28;20053;-80
2022/09/09 02:50:45;;;;;;;146.80;48.65;;;;;;;13.51;100.00;100315.91;5005184;28;20088;-80
2022/09/09 02:53:16;;;;;;;150.07;48.72;;;;;;;13.49;100.00;100314.44;5035850;28;20535;-79
2022/09/09 02:55:48;;;;;;;129.82;45.97;;;;;;;13.51;100.00;100315.09;5017398;28;20026;-79
2022/09/09 02:58:18;;;;;;;141.93;48.53;;;;;;;13.48;100.00;100313.59;5010067;28;20044;-79
2022/09/09 03:00:52;;;;;;;141.57;50.85;;;;;;;13.51;100.00;100325.81;5026980;28;20071;-81
2022/09/09 03:03:20;;;;;;;139.77;51.20;;;;;;;13.51;100.00;100323.13;5013320;28;20086;-82
2022/09/09 03:05:48;;;;;;;144.30;49.90;;;;;;;13.45;100.00;100324.72;5018283;28;20479;-81
2022/09/09 03:08:13;;;;;;;157.33;53.13;;;;;;;13.54;100.00;100324.59;5030085;28;20114;-80
2022/09/09 03:10:39;;;;;;;158.43;51.27;;;;;;;13.42;100.00;100326.97;5018256;28;20216;-81
2022/09/09 03:13:05;;;;;;;157.20;50.33;;;;;;;13.45;100.00;100323.88;5009567;28;20091;-80
2022/09/09 03:15:34;;;;;;;166.90;49.83;;;;;;;13.30;100.00;100313.22;5009015;28;20585;-83
2022/09/09 03:18:00;;;;;;;169.10;49.45;;;;;;;13.38;100.00;100328.34;5020792;28;20034;-82
2022/09/09 03:20:28;;;;;;;159.77;49.70;;;;;;;13.40;100.00;100337.88;5028606;28;20441;-79
2022/09/09 03:22:54;;;;;;;166.25;55.50;;;;;;;13.30;100.00;100334.69;5018521;28;20022;-79
2022/09/09 03:25:20;;;;;;;153.70;49.67;;;;;;;13.38;100.00;100342.59;5043253;28;20086;-80
2022/09/09 03:27:46;;;;;;;174.30;52.60;;;;;;;13.30;100.00;100345.41;5017332;28;20033;-79
2022/09/09 03:30:12;;;;;;;161.50;55.03;;;;;;;13.33;100.00;100354.91;5007878;28;20394;-79
2022/09/09 03:32:37;;;;;;;158.43;52.63;;;;;;;13.16;100.00;100325.63;5028336;28;20036;-81
2022/09/09 03:35:04;;;;;;;190.32;57.65;;;;;;;13.31;100.00;100365.81;5024794;28;20100;-80
2022/09/09 03:37:29;;;;;;;;;;;;;;;13.36;100.00;100368.75;5021299;28;20037;-79
2022/09/09 03:39:55;;;;;;;;;;;;;;;13.32;100.00;100367.47;5027540;28;20377;-81
2022/09/09 03:42:21;;;;;;;154.82;49.13;;;;;;;13.30;100.00;100370.34;5025874;28;19920;-81
2022/09/09 03:44:50;;;;;;;169.60;51.83;;;;;;;13.29;100.00;100363.31;5021488;28;20044;-80
2022/09/09 03:47:19;;;;;;;157.10;49.63;;;;;;;13.33;100.00;100366.47;5028702;28;20041;-81
2022/09/09 03:49:45;;;;;;;161.27;48.70;;;;;;;13.32;100.00;100367.47;5019615;28;20504;-79
2022/09/09 03:52:11;;;;;;;187.63;52.28;;;;;;;13.24;100.00;100351.47;5008505;28;20033;-78
2022/09/09 03:54:37;;;;;;;163.10;50.77;;;;;;;13.24;100.00;100359.53;5028115;28;20021;-79
2022/09/09 03:57:04;;;;;;;147.88;46.88;;;;;;;13.20;100.00;100364.41;5028919;28;20479;-79
2022/09/09 03:59:30;;;;;;;180.02;51.08;;;;;;;13.24;100.00;100362.22;5016598;28;20406;-79
2022/09/09 04:01:57;;;;;;;161.27;49.75;;;;;;;13.25;100.00;100355.81;5012173;28;20025;-81
2022/09/09 04:04:22;;;;;;;148.50;47.47;;;;;;;13.21;100.00;100355.38;5028887;28;20492;-81
2022/09/09 04:06:51;;;;;;;163.45;47.95;;;;;;;13.17;100.00;100353.25;5023676;28;20052;-80
2022/09/09 04:09:16;;;;;;;162.95;49.78;;;;;;;13.10;100.00;100350.50;5032916;28;20068;-80
2022/09/09 04:11:41;;;;;;;146.47;45.37;;;;;;;13.19;100.00;100348.53;5030969;28;20061;-80
2022/09/09 04:14:08;;;;;;;151.50;47.85;;;;;;;13.22;100.00;100369.59;5026918;28;20033;-80
2022/09/09 04:16:37;;;;;;;133.43;42.33;;;;;;;13.28;100.00;100374.25;5028920;28;20033;-81
2022/09/09 04:19:07;;;;;;;135.13;43.38;;;;;;;13.29;100.00;100376.72;5034469;28;20084;-80
2022/09/09 04:21:33;;;;;;;137.93;44.72;;;;;;;13.27;100.00;100380.59;5029533;28;20033;-80
2022/09/09 04:24:00;;;;;;;118.70;42.72;;;;;;;13.25;100.00;100377.25;5031872;28;20430;-80
2022/09/09 04:26:25;;;;;;;128.05;41.15;;;;;;;13.30;100.00;100378.41;5034683;28;20040;-80
2022/09/09 04:28:51;;;;;;;119.55;41.55;;;;;;;13.24;100.00;100365.72;5025512;28;20029;-80
2022/09/09 04:31:22;;;;;;;125.65;42.00;;;;;;;13.27;100.00;100368.06;5036070;28;20045;-80
2022/09/09 04:33:50;;;;;;;118.93;41.83;;;;;;;13.28;100.00;100367.03;5024862;28;20081;-80
2022/09/09 04:36:18;;;;;;;119.32;41.70;;;;;;;13.31;100.00;100363.13;5035248;28;20028;-80
2022/09/09 04:38:44;;;;;;;130.65;42.92;;;;;;;13.23;100.00;100355.19;5031696;28;20625;-80
2022/09/09 04:41:11;;;;;;;113.10;39.92;;;;;;;13.31;100.00;100365.81;5025572;28;20128;-80
2022/09/09 04:43:39;;;;;;;110.07;42.83;;;;;;;13.29;100.00;100363.31;5031868;28;20034;-79
2022/09/09 04:46:06;;;;;;;131.25;43.35;;;;;;;13.30;100.00;100356.13;5030032;28;20030;-79
2022/09/09 04:48:32;;;;;;;108.73;38.90;;;;;;;13.28;100.00;100350.13;5030504;28;20040;-78
2022/09/09 04:51:01;;;;;;;132.88;43.22;;;;;;;13.33;100.00;100354.91;5011175;28;20108;-79
2022/09/09 04:53:28;;;;;;;115.40;42.47;;;;;;;13.27;100.00;100343.06;5033435;28;20035;-79
2022/09/09 04:56:11;;;;;;;132.90;42.90;;;;;;;13.29;100.00;100349.91;5032243;28;20018;-79
2022/09/09 04:58:45;;;;;;;128.80;44.80;;;;;;;13.28;100.00;100363.53;5024753;28;20425;-78
2022/09/09 05:01:17;;;;;;;121.95;42.03;;;;;;;13.34;100.00;100369.97;4997600;28;20034;-78
2022/09/09 05:03:45;;;;;;;131.40;44.60;;;;;;;13.22;100.00;100359.69;5018679;28;20053;-79
2022/09/09 05:06:17;;;;;;;131.05;42.35;;;;;;;13.22;100.00;100357.03;5027746;28;20029;-78
2022/09/09 05:08:44;;;;;;;127.07;43.90;;;;;;;13.23;100.00;100356.03;5000184;28;20030;-79
2022/09/09 05:11:18;;;;;;;116.00;41.38;;;;;;;13.30;100.00;100366.84;5006044;28;20034;-79
2022/09/09 05:13:44;;;;;;;112.88;44.10;;;;;;;13.27;100.00;100365.38;5022447;28;20055;-78
2022/09/09 05:16:11;;;;;;;117.82;43.10;;;;;;;13.32;100.00;100374.69;5019951;28;20034;-79
2022/09/09 05:18:41;;;;;;;129.52;45.63;;;;;;;13.32;100.00;100374.69;5016967;28;20391;-78
2022/09/09 05:21:07;;;;;;;108.15;43.85;;;;;;;13.31;100.00;100376.53;5000807;28;20033;-77
2022/09/09 05:23:33;;;;;;;114.10;43.10;;;;;;;13.38;100.00;100392.72;5010979;28;20017;-78
2022/09/09 05:25:59;;;;;;;;;;;;;;;13.44;100.00;100398.16;5019949;28;20017;-78
2022/09/09 05:28:25;;;;;;;;;;;;;;;13.41;100.00;100398.50;5004556;28;20393;-79
2022/09/09 05:31:00;;;;;;;111.93;42.67;;;;;;;13.38;100.00;100395.38;5022581;28;20354;-78
2022/09/09 05:33:27;;;;;;;91.77;39.30;;;;;;;13.37;100.00;100386.53;5019160;28;20052;-78
2022/09/09 05:36:01;;;;;;;109.00;43.65;;;;;;;13.40;100.00;100393.34;5019103;28;20029;-79
2022/09/09 05:38:27;;;;;;;90.03;38.10;;;;;;;13.46;100.00;100400.63;5004588;28;20045;-79
2022/09/09 05:40:53;;;;;;;108.68;42.95;;;;;;;13.42;100.00;100394.81;5014276;28;20025;-78
2022/09/09 05:43:20;;;;;;;106.30;45.73;;;;;;;13.42;100.00;100388.63;5020562;28;20045;-79
2022/09/09 05:46:05;;;;;;;95.10;41.55;;;;;;;13.49;100.00;100394.91;5016290;28;20047;-78
2022/09/09 05:48:32;;;;;;;105.72;42.78;;;;;;;13.34;100.00;100386.88;5018795;28;20101;-80
2022/09/09 05:50:59;;;;;;;112.22;44.08;;;;;;;13.41;100.00;100387.78;5018777;28;20033;-77
2022/09/09 05:53:26;;;;;;;100.43;40.95;;;;;;;13.45;100.00;100389.06;5005329;28;20040;-79
2022/09/09 05:56:03;;;;;;;95.63;38.88;;;;;;;13.51;100.00;100398.22;5021824;28;20025;-78
2022/09/09 05:58:34;;;;;;;84.28;36.50;;;;;;;13.45;100.00;100389.06;5020812;28;20122;-78
2022/09/09 06:01:04;;;;;;;86.18;37.65;;;;;;;13.41;100.00;100390.47;5018777;28;20041;-78
2022/09/09 06:03:31;;;;;;;92.63;39.10;;;;;;;13.49;100.00;100397.59;5018754;28;20063;-78
2022/09/09 06:06:04;;;;;;;91.70;40.17;;;;;;;13.47;100.00;100403.13;5011944;28;20025;-81
2022/09/09 06:08:30;;;;;;;84.28;38.03;;;;;;;13.36;100.00;100392.88;5012626;28;20505;-79
2022/09/09 06:11:02;;;;;;;83.70;37.87;;;;;;;13.49;100.00;100401.09;5011526;28;20022;-79
2022/09/09 06:13:32;;;;;;;80.25;37.67;;;;;;;13.46;100.00;100396.13;5013668;28;20483;-79
2022/09/09 06:15:58;;;;;;;77.45;35.58;;;;;;;13.55;100.00;100393.28;5022912;28;20116;-79
2022/09/09 06:18:24;;;;;;;;;;;;;;;13.59;100.00;100391.91;5022478;28;20021;-78
2022/09/09 06:21:06;;;;;;;;;;;;;;;13.53;100.00;100390.78;5006370;28;19979;-79
2022/09/09 06:23:34;;;;;;;76.50;34.13;;;;;;;13.60;100.00;100396.22;5016353;28;20374;-80
2022/09/09 06:26:02;;;;;;;77.50;35.50;;;;;;;13.61;100.00;100381.81;5011857;28;20049;-79
2022/09/09 06:28:28;;;;;;;83.95;38.28;;;;;;;13.66;100.00;100390.94;5024205;28;20034;-79
2022/09/09 06:31:02;;;;;;;75.15;37.72;;;;;;;13.63;100.00;100377.09;5014504;28;20031;-79
2022/09/09 06:33:31;;;;;;;72.72;34.53;;;;;;;13.74;100.00;100373.88;5016372;28;20475;-78
2022/09/09 06:35:57;;;;;;;78.35;35.38;;;;;;;13.73;100.00;100365.00;5011285;28;20017;-80
2022/09/09 06:38:23;;;;;;;74.00;35.97;;;;;;;13.97;100.00;100370.16;5028751;28;20111;-80
2022/09/09 06:40:58;;;;;;;66.03;33.97;;;;;;;14.05;100.00;100368.19;5008868;28;20105;-79
2022/09/09 06:43:24;;;;;;;69.53;34.80;;;;;;;13.93;100.00;100351.78;5041651;28;20377;-77
2022/09/09 06:46:03;;;;;;;67.07;34.22;;;;;;;14.11;100.00;100345.91;5017782;28;20026;-78
2022/09/09 06:48:28;;;;;;;58.35;31.13;;;;;;;14.20;100.00;100341.22;5008465;28;20534;-78
2022/09/09 06:51:05;;;;;;;61.03;31.08;;;;;;;13.89;100.00;100320.97;5025989;28;20128;-78
2022/09/09 06:53:33;;;;;;;59.00;33.22;;;;;;;14.19;100.00;100319.94;5024389;28;20030;-77
2022/09/09 06:56:13;;;;;;;58.80;32.22;;;;;;;14.04;100.00;100306.63;5026416;28;20090;-79
2022/09/09 06:58:43;;;;;;;57.28;32.42;;;;;;;14.13;100.00;100286.66;5023876;28;20485;-78
2022/09/09 07:01:13;;;;;;;59.80;32.53;;;;;;;14.20;100.00;100286.72;5023206;28;20486;-78
2022/09/09 07:03:40;;;;;;;67.95;36.45;;;;;;;14.23;100.00;100281.75;5009502;28;20022;-77
2022/09/09 07:06:07;;;;;;;54.63;33.25;;;;;;;14.74;100.00;100291.34;5005739;28;20032;-78
2022/09/09 07:08:33;;;;;;;48.95;30.23;;;;;;;15.06;100.00;100283.59;5014011;28;20115;-77
2022/09/09 07:11:07;;;;;;;53.28;31.98;;;;;;;15.15;100.00;100272.44;5013807;28;20897;-78
2022/09/09 07:13:34;;;;;;;43.63;28.00;;;;;;;15.73;100.00;100265.69;5021366;28;20884;-76
2022/09/09 07:16:12;;;;;;;39.40;24.95;;;;;;;16.00;100.00;100267.31;5016915;28;20029;-76
2022/09/09 07:18:39;;;;;;;45.38;28.70;;;;;;;15.96;100.00;100259.84;5013381;28;20038;-77
2022/09/09 07:21:06;;;;;;;42.20;27.35;;;;;;;15.65;100.00;100252.41;5013469;28;20060;-77
2022/09/09 07:23:32;;;;;;;40.92;26.98;;;;;;;15.83;100.00;100272.31;5016794;28;20037;-78
2022/09/09 07:25:58;;;;;;;42.45;25.77;;;;;;;15.30;100.00;100266.88;5017315;28;20021;-78
2022/09/09 07:28:25;;;;;;;39.75;25.63;;;;;;;15.19;100.00;100284.47;5014630;28;20038;-77
2022/09/09 07:30:56;;;;;;;44.15;26.35;;;;;;;15.35;100.00;100293.97;5014049;28;20053;-78
2022/09/09 07:33:21;;;;;;;41.22;25.85;;;;;;;15.54;100.00;100302.28;4999718;28;20090;-78
2022/09/09 07:35:47;;;;;;;41.92;25.63;;;;;;;15.73;100.00;100304.19;5006476;28;20026;-77
2022/09/09 07:38:12;;;;;;;38.35;24.25;;;;;;;15.66;100.00;100303.31;5040192;28;20498;-77
2022/09/09 07:40:39;;;;;;;50.57;26.83;;;;;;;15.49;100.00;100294.81;5014451;28;20171;-76
2022/09/09 07:43:05;;;;;;;39.33;23.95;;;;;;;15.15;100.00;100299.34;5024131;28;20025;-77
2022/09/09 07:45:31;;;;;;;35.10;23.80;;;;;;;15.48;100.00;100314.69;5026753;28;20612;-78
2022/09/09 07:47:56;;;;;;;;;;;;;;;15.96;100.00;100322.59;5033318;28;20033;-77
2022/09/09 07:50:23;;;;;;;;;;;;;;;16.15;100.00;100320.09;5011153;28;19919;-77
2022/09/09 07:52:51;;;;;;;27.15;19.05;;;;;;;16.04;100.00;100308.94;5028396;28;20367;-78
2022/09/09 07:55:16;;;;;;;26.50;18.70;;;;;;;15.72;100.00;100315.16;5022181;28;20022;-77
2022/09/09 07:57:42;;;;;;;30.63;20.08;;;;;;;15.86;100.00;100306.03;5019946;28;20029;-78
2022/09/09 08:00:10;;;;;;;27.13;20.10;;;;;;;16.74;100.00;100324.53;5020669;28;20064;-78
2022/09/09 08:02:40;;;;;;;26.70;17.67;;;;;;;16.79;100.00;100273.50;5001482;28;20033;-77
2022/09/09 08:05:08;;;;;;;30.90;18.08;;;;;;;16.18;100.00;100255.06;5002618;28;20446;-77
2022/09/09 08:07:34;;;;;;;;;;;;;;;16.31;100.00;100299.97;5020637;28;20022;-78
2022/09/09 08:09:59;;;;;;;;;;;;;;;16.80;100.00;100294.03;5024336;28;19927;-76
2022/09/09 08:12:29;;;;;;;24.25;17.05;;;;;;;16.68;100.00;100287.63;5029708;28;20294;-77
2022/09/09 08:14:55;;;;;;;25.52;16.27;;;;;;;16.66;100.00;100262.75;5019570;28;20036;-78
2022/09/09 08:17:21;;;;;;;26.70;16.70;;;;;;;16.79;100.00;100284.28;5028469;28;20025;-77
2022/09/09 08:19:46;;;;;;;25.58;16.15;;;;;;;17.47;100.00;100280.97;5022844;28;20037;-78
2022/09/09 08:22:16;;;;;;;20.08;14.82;;;;;;;16.99;100.00;100208.69;5011123;28;20475;-78
2022/09/09 08:24:43;;;;;;;;;;;;;;;16.57;100.00;100250.56;5018702;28;20493;-76
2022/09/09 08:27:09;;;;;;;;;;;;;;;17.99;100.00;100302.38;5027207;28;19913;-78
2022/09/09 08:29:35;;;;;;;;;;;;;;;19.55;100.00;100236.94;5011477;28;19967;-78
2022/09/09 08:32:01;;;;;;;17.05;12.60;;;;;;;18.25;100.00;100078.91;5029187;28;20370;-78
2022/09/09 08:34:28;;;;;;;15.27;11.70;;;;;;;18.52;100.00;100191.00;5030126;28;20112;-78
2022/09/09 08:36:55;;;;;;;15.93;13.15;;;;;;;18.82;100.00;100155.03;5010127;28;20045;-78
2022/09/09 08:39:27;;;;;;;15.32;11.65;;;;;;;19.26;100.00;100142.06;5029635;28;20026;-78
2022/09/09 08:42:02;;;;;;;17.63;12.32;;;;;;;19.17;100.00;100105.56;4997079;28;20036;-77
2022/09/09 08:44:38;;;;;;;15.05;12.15;;;;;;;19.69;100.00;100086.75;5033536;28;20120;-77
2022/09/09 08:47:36;;;;;;;15.20;11.25;;;;;;;20.56;100.00;100074.09;5019612;28;20029;-78
2022/09/09 08:50:23;;;;;;;14.15;11.93;;;;;;;19.84;100.00;100053.75;5027172;28;20033;-78
2022/09/09 08:53:09;;;;;;;11.68;10.27;;;;;;;20.71;100.00;100054.53;5022310;28;20068;-79
2022/09/09 08:55:49;;;;;;;16.75;12.20;;;;;;;18.64;100.00;100071.28;5028932;28;20429;-78
2022/09/09 08:58:30;;;;;;;17.75;11.43;;;;;;;19.36;100.00;100271.38;5026990;28;20029;-78
2022/09/09 09:01:09;;;;;;;18.65;12.63;;;;;;;18.43;100.00;100143.72;5021540;28;20253;-78
2022/09/09 09:04:02;;;;;;;14.75;12.20;;;;;;;17.54;100.00;100307.09;5028737;28;20113;-77
2022/09/09 09:06:36;;;;;;;17.15;12.75;;;;;;;17.89;100.00;100364.19;5010418;28;20426;-79
2022/09/09 09:09:13;;;;;;;13.98;10.82;;;;;;;18.21;100.00;100380.31;4997884;28;20034;-77
2022/09/09 09:11:48;;;;;;;16.60;12.20;;;;;;;17.46;100.00;100391.81;5029647;28;20083;-78
2022/09/09 09:14:25;;;;;;;16.33;13.13;;;;;;;17.11;100.00;100404.88;5030474;28;20088;-79
2022/09/09 09:16:58;;;;;;;17.42;13.25;;;;;;;17.69;100.00;100456.88;5028628;28;20565;-79
2022/09/09 09:19:28;;;;;;;17.67;12.93;;;;;;;17.96;100.00;100424.38;5012561;28;20017;-78
2022/09/09 09:21:58;;;;;;;18.50;13.82;;;;;;;17.34;100.00;100367.41;5028447;28;20033;-78
2022/09/09 09:24:32;;;;;;;19.77;13.00;;;;;;;17.54;100.00;100436.66;5026135;28;20040;-78
2022/09/09 09:27:07;;;;;;;17.20;12.73;;;;;;;17.66;100.00;100418.72;4995822;28;20487;-78
2022/09/09 09:29:33;;;;;;;19.13;13.50;;;;;;;17.00;100.00;100417.16;5026058;28;20398;-78
2022/09/09 09:32:02;;;;;;;17.15;13.20;;;;;;;17.33;100.00;100464.78;5022774;28;20137;-77
2022/09/09 09:34:28;;;;;;;22.05;16.40;;;;;;;16.76;100.00;100408.66;5030868;28;20036;-77
2022/09/09 09:37:04;;;;;;;16.63;13.45;;;;;;;16.73;100.00;100478.38;5021317;28;20037;-78
2022/09/09 09:39:38;;;;;;;17.50;13.20;;;;;;;17.06;100.00;100499.91;5034259;28;20474;-76
2022/09/09 09:42:13;;;;;;;17.90;16.00;;;;;;;17.16;100.00;100440.97;5031001;28;20037;-75
2022/09/09 09:44:41;;;;;;;17.98;15.45;;;;;;;16.79;100.00;100446.03;5031291;28;20564;-78
2022/09/09 09:47:18;;;;;;;19.15;14.63;;;;;;;16.92;100.00;100476.72;5027853;28;20041;-78
2022/09/09 09:49:58;;;;;;;20.15;16.42;;;;;;;16.84;100.00;100465.09;4999342;28;20112;-78
2022/09/09 09:52:26;;;;;;;17.70;13.88;;;;;;;17.43;100.00;100481.31;5044426;28;20548;-77
2022/09/09 09:54:54;;;;;;;15.15;12.02;;;;;;;18.69;100.00;100455.34;5020164;28;20112;-76
2022/09/09 09:57:28;;;;;;;16.65;12.45;;;;;;;18.33;100.00;100310.97;5031321;28;20132;-78
2022/09/09 10:00:22;;;;;;;16.20;11.90;;;;;;;18.38;100.00;100359.78;5020303;28;20396;-79
2022/09/09 10:03:00;;;;;;;13.50;11.68;;;;;;;18.62;100.00;100312.13;4987017;28;20137;-77
2022/09/09 10:05:29;;;;;;;11.18;10.02;;;;;;;18.82;100.00;100298.38;5004228;28;20030;-76
2022/09/09 10:08:16;;;;;;;11.20;9.63;;;;;;;19.39;100.00;100212.22;5002562;28;20038;-77
2022/09/09 10:11:00;;;;;;;9.57;8.57;;;;;;;19.27;100.00;100089.59;4972032;28;20042;-77
2022/09/09 10:14:07;;;;;;;11.35;10.10;;;;;;;18.82;100.00;100189.38;4981737;28;20050;-78
2022/09/09 10:16:32;;;;;;;12.73;8.80;;;;;;;19.19;100.00;100309.13;4997640;28;20033;-76
2022/09/09 10:19:00;;;;;;;11.87;9.17;;;;;;;18.90;100.00;100284.53;4987119;28;20416;-78
2022/09/09 10:21:32;;;;;;;13.73;7.80;;;;;;;19.87;100.00;100320.59;4990511;28;20033;-79
2022/09/09 10:24:17;;;;;;;10.27;7.20;;;;;;;20.22;100.00;100091.06;5002862;28;20476;-77
2022/09/09 10:26:49;;;;;;;7.00;6.30;;;;;;;19.21;100.00;100084.31;4977739;28;20054;-77
2022/09/09 10:30:01;;;;;;;10.63;5.55;;;;;;;18.97;100.00;100158.13;4988290;28;20042;-78
2022/09/09 10:32:35;;;;;;;6.38;5.18;;;;;;;19.00;100.00;100275.88;4990404;28;20557;-78
2022/09/09 10:35:10;;;;;;;8.05;5.50;;;;;;;18.97;100.00;100200.59;4976441;28;20034;-78
2022/09/09 10:37:50;;;;;;;8.60;6.18;;;;;;;19.69;100.00;100276.31;4999703;28;20049;-79
2022/09/09 10:41:04;;;;;;;8.07;6.68;;;;;;;19.56;100.00;100106.75;5032976;28;20053;-77
2022/09/09 10:43:47;;;;;;;8.07;5.90;;;;;;;20.37;100.00;100120.34;4986611;28;20085;-78
2022/09/09 10:46:35;;;;;;;5.47;4.97;;;;;;;19.69;100.00;100111.13;4986771;28;20137;-77
2022/09/09 10:49:38;;;;;;;6.47;4.60;;;;;;;20.61;100.00;100090.44;4967610;28;20034;-78
2022/09/09 10:52:29;;;;;;;7.28;4.85;;;;;;;21.42;100.00;99995.91;4965722;28;20042;-76
2022/09/09 10:55:16;;;;;;;5.28;3.80;;;;;;;20.93;100.00;99971.34;4966746;28;20057;-77
2022/09/09 10:57:52;;;;;;;4.97;3.05;;;;;;;20.83;100.00;99953.00;4960683;28;20122;-78
2022/09/09 11:00:21;;;;;;;3.35;3.03;;;;;;;21.35;100.00;99957.19;4984238;28;20501;-78
2022/09/09 11:02:56;;;;;;;6.88;2.97;;;;;;;21.47;100.00;99938.94;4959776;28;20158;-77
2022/09/09 11:05:41;;;;;;;3.95;2.47;;;;;;;22.05;100.00;99932.97;4962303;28;20050;-78
2022/09/09 11:08:20;;;;;;;7.13;3.30;;;;;;;21.44;100.00;99737.69;4978827;28;20085;-78
2022/09/09 11:10:55;;;;;;;3.72;3.10;;;;;;;21.59;100.00;99777.75;4944129;28;20046;-77
2022/09/09 11:13:54;;;;;;;5.50;3.03;;;;;;;20.70;100.00;99918.09;4946113;28;20042;-77
2022/09/09 11:16:52;;;;;;;3.55;2.80;;;;;;;23.07;100.00;99931.03;4970823;28;20054;-77
2022/09/09 11:19:32;;;;;;;2.97;2.67;;;;;;;22.74;100.00;99568.44;5003888;28;20037;-78
2022/09/09 11:22:01;;;;;;;5.10;2.15;;;;;;;22.43;100.00;99577.63;5021208;28;20076;-77
2022/09/09 11:24:31;;;;;;;4.80;2.10;;;;;;;22.87;100.00;99661.47;5023933;28;20049;-76
2022/09/09 11:27:14;;;;;;;4.70;1.70;;;;;;;23.20;100.00;99817.28;5002407;28;20483;-77
2022/09/09 11:30:03;;;;;;;4.78;1.92;;;;;;;23.70;97.55;99535.88;5022190;28;20036;-79